createdAt,value
2022-09-13T00:01:11.654Z,97.53
2022-09-13T00:03:41.267Z,97.74
2022-09-13T00:06:13.340Z,97.68
2022-09-13T00:08:43.039Z,98.02
2022-09-13T00:11:17.924Z,97.70
2022-09-13T00:13:47.108Z,97.58
2022-09-13T00:16:18.058Z,97.45
2022-09-13T00:18:48.550Z,97.64
2022-09-13T00:21:19.062Z,97.55
2022-09-13T00:23:48.916Z,97.48
2022-09-13T00:26:21.303Z,97.51
2022-09-13T00:28:52.124Z,97.38
2022-09-13T00:31:21.520Z,97.62
2022-09-13T00:33:51.458Z,97.27
2022-09-13T00:36:19.737Z,97.49
2022-09-13T00:38:48.407Z,97.54
2022-09-13T00:41:19.516Z,97.26
2022-09-13T00:43:52.266Z,97.40
2022-09-13T00:46:33.214Z,97.45
2022-09-13T00:49:13.415Z,97.47
2022-09-13T00:51:45.818Z,97.45
2022-09-13T00:54:15.676Z,97.41
2022-09-13T00:56:49.695Z,97.22
2022-09-13T00:59:26.139Z,97.25
2022-09-13T01:01:57.973Z,97.27
2022-09-13T01:04:31.922Z,97.15
2022-09-13T01:07:05.399Z,97.14
2022-09-13T01:09:37.041Z,97.07
2022-09-13T01:12:16.056Z,96.85
2022-09-13T01:14:46.260Z,96.87
2022-09-13T01:17:14.475Z,96.81
2022-09-13T01:19:44.108Z,96.74
2022-09-13T01:22:56.771Z,96.98
2022-09-13T01:26:10.092Z,97.07
2022-09-13T01:29:10.610Z,96.87
2022-09-13T01:31:49.989Z,96.97
2022-09-13T01:34:33.152Z,96.96
2022-09-13T01:37:32.413Z,97.23
2022-09-13T01:40:09.995Z,96.90
2022-09-13T01:42:57.856Z,96.86
2022-09-13T01:45:37.197Z,96.73
2022-09-13T01:48:17.906Z,96.81
2022-09-13T01:50:53.954Z,96.69
2022-09-13T01:53:32.569Z,96.70
2022-09-13T01:56:08.467Z,96.60
2022-09-13T01:58:44.881Z,96.59
2022-09-13T02:01:18.785Z,96.39
2022-09-13T02:03:55.640Z,96.40
2022-09-13T02:06:27.438Z,96.33
2022-09-13T02:09:00.869Z,96.34
2022-09-13T02:11:30.125Z,96.42
2022-09-13T02:14:04.331Z,96.40
2022-09-13T02:16:38.956Z,96.32
2022-09-13T02:19:15.032Z,96.49
2022-09-13T02:21:47.866Z,96.64
2022-09-13T02:24:21.637Z,96.68
2022-09-13T02:26:54.104Z,96.60
2022-09-13T02:29:25.904Z,96.62
2022-09-13T02:32:03.389Z,96.65
2022-09-13T02:34:39.222Z,96.83
2022-09-13T02:37:10.856Z,96.61
2022-09-13T02:39:46.991Z,96.82
2022-09-13T02:42:20.276Z,96.74
2022-09-13T02:44:52.346Z,96.71
2022-09-13T02:47:39.541Z,96.75
2022-09-13T02:50:23.662Z,96.74
2022-09-13T02:53:02.667Z,97.13
2022-09-13T02:55:40.347Z,97.25
2022-09-13T02:58:14.150Z,97.33
2022-09-13T03:00:43.027Z,97.42
2022-09-13T03:03:16.663Z,97.40
2022-09-13T03:05:46.399Z,97.37
2022-09-13T03:08:17.816Z,97.30
2022-09-13T03:11:12.710Z,97.54
2022-09-13T03:14:19.070Z,97.79
2022-09-13T03:17:09.200Z,97.71
2022-09-13T03:20:12.377Z,97.76
2022-09-13T03:23:32.812Z,97.94
2022-09-13T03:26:29.287Z,97.67
2022-09-13T03:29:21.720Z,97.74
2022-09-13T03:31:58.422Z,97.71
2022-09-13T03:34:38.520Z,97.90
2022-09-13T03:37:12.708Z,97.89
2022-09-13T03:39:49.502Z,97.83
2022-09-13T03:42:27.087Z,97.82
2022-09-13T03:44:58.741Z,97.82
2022-09-13T03:47:29.349Z,97.75
2022-09-13T03:49:59.470Z,97.74
2022-09-13T03:52:28.093Z,97.66
2022-09-13T03:54:59.025Z,97.66
2022-09-13T03:57:27.292Z,97.51
2022-09-13T03:59:57.948Z,97.27
2022-09-13T04:02:27.876Z,97.14
2022-09-13T04:04:56.432Z,97.28
2022-09-13T04:07:26.284Z,97.44
2022-09-13T04:09:54.766Z,97.35
2022-09-13T04:12:24.452Z,97.24
2022-09-13T04:14:52.779Z,97.39
2022-09-13T04:17:21.348Z,97.59
2022-09-13T04:19:49.839Z,97.50
2022-09-13T04:22:18.326Z,97.62
2022-09-13T04:24:46.551Z,97.62
2022-09-13T04:27:15.077Z,97.79
2022-09-13T04:29:44.616Z,97.78
2022-09-13T04:32:12.811Z,97.67
2022-09-13T04:34:41.294Z,97.60
2022-09-13T04:37:10.307Z,97.44
2022-09-13T04:39:38.499Z,97.59
2022-09-13T04:42:08.164Z,97.57
2022-09-13T04:44:36.359Z,97.59
2022-09-13T04:47:08.208Z,97.48
2022-09-13T04:49:36.855Z,97.46
2022-09-13T04:52:05.279Z,97.38
2022-09-13T04:54:33.860Z,97.26
2022-09-13T04:57:02.044Z,97.19
2022-09-13T04:59:30.235Z,97.22
2022-09-13T05:01:58.536Z,97.28
2022-09-13T05:04:28.117Z,97.32
2022-09-13T05:06:57.709Z,97.36
2022-09-13T05:09:26.443Z,97.37
2022-09-13T05:11:54.914Z,97.50
2022-09-13T05:14:23.289Z,97.52
2022-09-13T05:16:51.512Z,97.45
2022-09-13T05:19:19.715Z,97.50
2022-09-13T05:21:49.304Z,97.48
2022-09-13T05:24:17.666Z,97.63
2022-09-13T05:26:46.120Z,97.65
2022-09-13T05:29:14.380Z,97.89
2022-09-13T05:31:44.632Z,97.78
2022-09-13T05:34:17.547Z,97.63
2022-09-13T05:36:48.436Z,97.76
2022-09-13T05:39:39.718Z,97.79
2022-09-13T05:42:11.173Z,97.72
2022-09-13T05:44:39.417Z,97.96
2022-09-13T05:47:07.864Z,97.95
2022-09-13T05:49:45.967Z,98.06
2022-09-13T05:52:25.020Z,98.27
2022-09-13T05:54:54.556Z,98.13
2022-09-13T05:57:22.787Z,98.18
2022-09-13T05:59:51.247Z,98.29
2022-09-13T06:02:19.474Z,98.25
2022-09-13T06:04:47.658Z,97.97
2022-09-13T06:07:16.175Z,97.97
2022-09-13T06:09:45.228Z,97.96
2022-09-13T06:12:14.811Z,97.74
2022-09-13T06:14:42.980Z,97.73
2022-09-13T06:17:11.223Z,97.54
2022-09-13T06:19:39.745Z,97.44
2022-09-13T06:22:08.074Z,97.40
2022-09-13T06:24:38.376Z,97.34
2022-09-13T06:27:07.043Z,97.30
2022-09-13T06:29:36.586Z,97.21
2022-09-13T06:32:05.600Z,96.91
2022-09-13T06:34:33.803Z,96.88
2022-09-13T06:37:02.006Z,96.83
2022-09-13T06:39:32.005Z,96.68
2022-09-13T06:42:00.704Z,96.63
2022-09-13T06:44:41.987Z,96.75
2022-09-13T06:47:10.931Z,96.71
2022-09-13T06:49:39.465Z,96.62
2022-09-13T06:52:07.712Z,96.35
2022-09-13T06:54:36.215Z,96.64
2022-09-13T06:57:04.656Z,96.25
2022-09-13T06:59:34.618Z,96.28
2022-09-13T07:02:04.382Z,96.04
2022-09-13T07:04:32.958Z,95.85
2022-09-13T07:07:01.943Z,95.73
2022-09-13T07:09:30.263Z,95.67
2022-09-13T07:11:59.552Z,95.73
2022-09-13T07:14:30.200Z,95.66
2022-09-13T07:16:58.624Z,95.15
2022-09-13T07:19:30.203Z,95.38
2022-09-13T07:21:59.072Z,95.16
2022-09-13T07:24:27.859Z,94.94
2022-09-13T07:26:56.601Z,95.17
2022-09-13T07:29:25.202Z,94.78
2022-09-13T07:31:55.369Z,94.92
2022-09-13T07:34:25.668Z,94.80
2022-09-13T07:36:55.756Z,94.57
2022-09-13T07:39:24.256Z,94.56
2022-09-13T07:41:53.721Z,94.44
2022-09-13T07:44:22.749Z,94.52
2022-09-13T07:46:50.940Z,94.23
2022-09-13T07:49:20.469Z,94.03
2022-09-13T07:51:51.161Z,93.77
2022-09-13T07:54:21.243Z,93.80
2022-09-13T07:56:51.591Z,93.61
2022-09-13T07:59:20.489Z,93.64
2022-09-13T08:01:50.751Z,93.55
2022-09-13T08:04:21.720Z,93.51
2022-09-13T08:06:50.320Z,93.68
2022-09-13T08:09:20.715Z,93.58
2022-09-13T08:11:52.789Z,93.33
2022-09-13T08:14:24.101Z,92.95
2022-09-13T08:16:55.666Z,93.18
2022-09-13T08:19:24.139Z,93.15
2022-09-13T08:21:52.308Z,93.04
2022-09-13T08:24:23.257Z,92.73
2022-09-13T08:26:52.758Z,92.01
2022-09-13T08:29:21.358Z,91.36
2022-09-13T08:31:49.786Z,91.11
2022-09-13T08:34:18.549Z,90.75
2022-09-13T08:36:47.596Z,90.26
2022-09-13T08:39:15.923Z,90.15
2022-09-13T08:42:17.064Z,89.72
2022-09-13T08:44:49.368Z,88.98
2022-09-13T08:47:33.560Z,88.65
2022-09-13T08:50:12.927Z,88.25
2022-09-13T08:52:57.550Z,88.13
2022-09-13T08:55:44.257Z,88.04
2022-09-13T08:58:53.317Z,87.92
2022-09-13T09:01:36.969Z,87.22
2022-09-13T09:04:14.716Z,86.56
2022-09-13T09:06:44.140Z,85.77
2022-09-13T09:09:19.160Z,84.89
2022-09-13T09:11:55.181Z,84.17
2022-09-13T09:14:32.879Z,84.16
2022-09-13T09:17:06.852Z,83.39
2022-09-13T09:19:40.631Z,83.45
2022-09-13T09:22:16.584Z,83.33
2022-09-13T09:24:50.112Z,83.27
2022-09-13T09:27:21.407Z,82.65
2022-09-13T09:29:58.041Z,82.67
2022-09-13T09:32:49.353Z,83.43
2022-09-13T09:35:32.380Z,83.53
2022-09-13T09:38:33.540Z,83.25
2022-09-13T09:41:07.107Z,82.48
2022-09-13T09:43:42.508Z,82.78
2022-09-13T09:46:15.428Z,81.94
2022-09-13T09:48:51.338Z,81.99
2022-09-13T09:51:22.170Z,81.37
2022-09-13T09:53:55.673Z,81.22
2022-09-13T09:56:26.900Z,80.80
2022-09-13T09:58:56.030Z,80.29
2022-09-13T10:01:29.045Z,79.80
2022-09-13T10:04:08.609Z,79.40
2022-09-13T10:06:39.689Z,78.38
2022-09-13T10:09:17.011Z,77.71
2022-09-13T10:11:50.079Z,76.39
2022-09-13T10:14:38.332Z,77.35
2022-09-13T10:17:18.521Z,76.92
2022-09-13T10:19:59.296Z,77.54
2022-09-13T10:22:28.984Z,76.12
2022-09-13T10:25:14.090Z,75.44
2022-09-13T10:27:43.817Z,78.16
2022-09-13T10:30:33.734Z,76.87
2022-09-13T10:33:04.002Z,75.45
2022-09-13T10:35:33.409Z,75.41
2022-09-13T10:38:02.032Z,75.04
2022-09-13T10:40:33.963Z,75.44
2022-09-13T10:43:07.045Z,74.80
2022-09-13T10:45:35.732Z,75.19
2022-09-13T10:48:14.279Z,75.09
2022-09-13T10:51:01.310Z,74.85
2022-09-13T10:53:37.851Z,75.59
2022-09-13T10:56:20.191Z,75.35
2022-09-13T10:58:48.432Z,76.06
2022-09-13T11:01:45.229Z,77.23
2022-09-13T11:05:06.393Z,77.55
2022-09-13T11:07:50.001Z,76.79
2022-09-13T11:10:30.127Z,77.02
2022-09-13T11:13:07.405Z,77.21
2022-09-13T11:15:54.378Z,77.62
2022-09-13T11:19:05.026Z,78.64
2022-09-13T11:21:49.324Z,78.83
2022-09-13T11:24:48.660Z,79.92
2022-09-13T11:27:26.062Z,80.12
2022-09-13T11:30:10.706Z,80.46
2022-09-13T11:33:15.763Z,81.65
2022-09-13T11:36:37.267Z,82.55
2022-09-13T11:39:19.179Z,82.55
2022-09-13T11:42:00.835Z,82.99
2022-09-13T11:45:21.913Z,84.19
2022-09-13T11:48:19.236Z,84.40
2022-09-13T11:50:59.385Z,84.68
2022-09-13T11:54:06.795Z,85.26
2022-09-13T11:56:40.812Z,85.10
2022-09-13T11:59:21.949Z,85.45
2022-09-13T12:01:58.581Z,85.74
2022-09-13T12:04:33.979Z,85.88
2022-09-13T12:07:09.406Z,85.86
2022-09-13T12:09:44.968Z,86.10
2022-09-13T12:12:15.728Z,86.05
2022-09-13T12:14:53.032Z,86.23
2022-09-13T12:17:30.454Z,85.77
2022-09-13T12:20:02.285Z,85.69
2022-09-13T12:22:35.789Z,85.93
2022-09-13T12:25:13.221Z,86.08
2022-09-13T12:27:51.760Z,86.00
2022-09-13T12:30:23.799Z,86.09
2022-09-13T12:32:58.138Z,86.15
2022-09-13T12:35:32.507Z,85.78
2022-09-13T12:38:37.780Z,86.66
2022-09-13T12:41:23.344Z,86.49
2022-09-13T12:44:39.853Z,86.61
2022-09-13T12:47:55.007Z,86.26
2022-09-13T12:50:47.295Z,85.33
2022-09-13T12:54:02.557Z,84.89
2022-09-13T12:56:56.749Z,85.34
2022-09-13T12:59:54.364Z,85.49
2022-09-13T13:02:36.588Z,85.08
2022-09-13T13:05:19.263Z,84.37
2022-09-13T13:07:54.131Z,83.92
2022-09-13T13:10:33.186Z,84.24
2022-09-13T13:13:20.067Z,83.99
2022-09-13T13:16:07.321Z,83.38
2022-09-13T13:18:48.844Z,81.81
2022-09-13T13:21:37.857Z,81.60
2022-09-13T13:24:47.331Z,81.63
2022-09-13T13:27:48.395Z,79.61
2022-09-13T13:30:54.025Z,78.92
2022-09-13T13:33:29.332Z,78.21
2022-09-13T13:35:57.598Z,77.04
2022-09-13T13:38:48.697Z,78.15
2022-09-13T13:41:54.360Z,78.63
2022-09-13T13:45:26.508Z,79.07
2022-09-13T13:48:08.901Z,77.18
2022-09-13T13:51:24.827Z,79.31
2022-09-13T13:54:02.164Z,78.12
2022-09-13T13:56:47.930Z,78.09
2022-09-13T13:59:26.759Z,77.64
2022-09-13T14:02:01.684Z,77.18
2022-09-13T14:05:09.332Z,78.44
2022-09-13T14:08:23.657Z,78.15
2022-09-13T14:11:00.784Z,77.34
2022-09-13T14:13:53.552Z,77.72
2022-09-13T14:16:40.018Z,77.64
2022-09-13T14:19:25.797Z,77.70
2022-09-13T14:22:16.560Z,78.27
2022-09-13T14:24:48.732Z,76.53
2022-09-13T14:27:21.244Z,76.60
2022-09-13T14:29:53.073Z,76.40
2022-09-13T14:32:25.447Z,76.04
2022-09-13T14:35:01.937Z,76.16
2022-09-13T14:37:33.720Z,75.36
2022-09-13T14:40:20.003Z,76.53
2022-09-13T14:42:51.354Z,75.39
2022-09-13T14:45:24.969Z,75.32
2022-09-13T14:47:59.092Z,75.45
2022-09-13T14:50:33.553Z,75.18
2022-09-13T14:53:05.987Z,75.15
2022-09-13T14:55:43.511Z,75.37
2022-09-13T14:58:20.062Z,74.85
2022-09-13T15:00:53.793Z,74.42
2022-09-13T15:03:22.658Z,74.31
2022-09-13T15:05:57.152Z,74.50
2022-09-13T15:08:44.957Z,75.13
2022-09-13T15:11:29.020Z,74.92
2022-09-13T15:14:28.543Z,75.84
2022-09-13T15:17:07.274Z,74.86
2022-09-13T15:19:42.059Z,75.22
2022-09-13T15:22:16.784Z,77.11
2022-09-13T15:24:49.390Z,76.07
2022-09-13T15:27:26.645Z,76.51
2022-09-13T15:29:58.097Z,76.10
2022-09-13T15:32:35.223Z,76.25
2022-09-13T15:35:03.974Z,76.12
2022-09-13T15:37:37.606Z,76.37
2022-09-13T15:40:20.228Z,76.64
2022-09-13T15:42:54.049Z,76.15
2022-09-13T15:45:24.107Z,76.27
2022-09-13T15:47:53.628Z,76.20
2022-09-13T15:50:26.839Z,76.39
2022-09-13T15:52:56.634Z,75.94
2022-09-13T15:55:25.635Z,76.69
2022-09-13T15:57:55.954Z,76.31
2022-09-13T16:00:27.094Z,76.71
2022-09-13T16:02:55.374Z,76.61
2022-09-13T16:05:23.765Z,76.65
2022-09-13T16:07:54.006Z,76.87
2022-09-13T16:10:24.401Z,76.95
2022-09-13T16:12:54.825Z,76.61
2022-09-13T16:15:23.013Z,76.96
2022-09-13T16:17:51.321Z,76.86
2022-09-13T16:20:19.936Z,76.96
2022-09-13T16:22:48.148Z,77.07
2022-09-13T16:25:17.210Z,77.04
2022-09-13T16:27:46.288Z,77.65
2022-09-13T16:30:19.804Z,77.64
2022-09-13T16:32:48.142Z,77.50
2022-09-13T16:35:17.004Z,78.04
2022-09-13T16:37:45.747Z,77.91
2022-09-13T16:40:14.266Z,78.38
2022-09-13T16:42:42.551Z,78.29
2022-09-13T16:45:12.533Z,78.42
2022-09-13T16:47:43.030Z,79.16
2022-09-13T16:50:11.811Z,79.44
2022-09-13T16:52:40.131Z,79.58
2022-09-13T16:55:09.703Z,79.97
2022-09-13T16:57:38.500Z,80.22
2022-09-13T17:00:11.037Z,80.36
2022-09-13T17:02:41.127Z,80.48
2022-09-13T17:05:11.071Z,81.11
2022-09-13T17:07:39.869Z,81.02
2022-09-13T17:10:10.091Z,81.22
2022-09-13T17:12:38.732Z,81.53
2022-09-13T17:15:08.699Z,81.92
2022-09-13T17:17:37.051Z,82.16
2022-09-13T17:20:11.955Z,82.57
2022-09-13T17:22:40.888Z,82.88
2022-09-13T17:25:11.295Z,83.08
2022-09-13T17:27:39.505Z,83.28
2022-09-13T17:30:11.216Z,83.58
2022-09-13T17:32:39.824Z,83.61
2022-09-13T17:35:11.756Z,83.71
2022-09-13T17:37:40.014Z,83.78
2022-09-13T17:40:09.278Z,84.16
2022-09-13T17:42:37.648Z,84.20
2022-09-13T17:45:06.928Z,84.39
2022-09-13T17:47:35.124Z,84.47
2022-09-13T17:50:03.351Z,84.68
2022-09-13T17:52:35.033Z,84.69
2022-09-13T17:55:03.881Z,84.94
2022-09-13T17:57:32.272Z,85.04
2022-09-13T18:00:00.805Z,85.13
2022-09-13T18:02:29.682Z,85.18
2022-09-13T18:04:59.555Z,85.40
2022-09-13T18:07:29.578Z,85.55
2022-09-13T18:09:59.108Z,85.63
2022-09-13T18:12:27.323Z,85.76
2022-09-13T18:14:55.640Z,85.95
2022-09-13T18:17:24.360Z,86.04
2022-09-13T18:19:52.697Z,86.01
2022-09-13T18:22:21.124Z,86.19
2022-09-13T18:24:49.314Z,86.32
2022-09-13T18:27:18.896Z,86.45
2022-09-13T18:29:47.526Z,86.41
2022-09-13T18:32:15.748Z,86.64
2022-09-13T18:34:44.209Z,86.67
2022-09-13T18:37:12.620Z,86.79
2022-09-13T18:39:40.859Z,86.79
2022-09-13T18:42:09.123Z,87.04
2022-09-13T18:44:38.889Z,87.24
2022-09-13T18:47:08.799Z,87.20
2022-09-13T18:49:37.158Z,87.32
2022-09-13T18:52:06.101Z,87.42
2022-09-13T18:54:34.283Z,87.51
2022-09-13T18:57:02.788Z,87.70
2022-09-13T18:59:32.156Z,87.56
2022-09-13T19:02:01.793Z,87.76
2022-09-13T19:04:31.895Z,87.77
2022-09-13T19:07:02.502Z,87.92
2022-09-13T19:09:30.793Z,87.99
2022-09-13T19:11:58.965Z,88.09
2022-09-13T19:14:29.324Z,88.10
2022-09-13T19:17:00.869Z,88.25
2022-09-13T19:19:31.930Z,88.23
2022-09-13T19:22:00.124Z,88.49
2022-09-13T19:24:28.351Z,88.51
2022-09-13T19:26:56.581Z,88.57
2022-09-13T19:29:24.892Z,88.47
2022-09-13T19:31:55.724Z,88.62
2022-09-13T19:34:24.403Z,88.72
2022-09-13T19:36:57.615Z,88.61
2022-09-13T19:39:29.492Z,88.80
2022-09-13T19:41:59.993Z,88.71
2022-09-13T19:44:28.540Z,88.69
2022-09-13T19:47:23.727Z,88.62
2022-09-13T19:49:45.035Z,88.62
2022-09-13T19:52:14.612Z,88.66
2022-09-13T19:54:43.122Z,88.54
2022-09-13T19:57:11.319Z,88.69
2022-09-13T19:59:39.588Z,88.72
2022-09-13T20:02:07.770Z,88.65
2022-09-13T20:04:36.541Z,88.80
2022-09-13T20:07:04.749Z,88.75
2022-09-13T20:09:34.356Z,88.67
2022-09-13T20:12:02.796Z,88.71
2022-09-13T20:14:32.737Z,88.74
2022-09-13T20:17:02.407Z,88.59
2022-09-13T20:19:40.945Z,88.59
2022-09-13T20:22:11.375Z,88.69
2022-09-13T20:24:41.035Z,88.72
2022-09-13T20:27:09.547Z,88.66
2022-09-13T20:29:37.874Z,88.88
2022-09-13T20:32:06.375Z,88.86
2022-09-13T20:34:35.129Z,88.98
2022-09-13T20:37:03.354Z,88.98
2022-09-13T20:39:31.599Z,89.04
2022-09-13T20:42:01.159Z,89.12
2022-09-13T20:44:29.635Z,89.24
2022-09-13T20:46:57.778Z,89.28
2022-09-13T20:49:26.263Z,89.13
2022-09-13T20:51:54.485Z,89.08
2022-09-13T20:54:22.687Z,89.35
2022-09-13T20:56:50.930Z,89.19
2022-09-13T20:59:21.173Z,89.34
2022-09-13T21:01:49.816Z,89.44
2022-09-13T21:04:18.278Z,89.58
2022-09-13T21:07:00.744Z,89.62
2022-09-13T21:09:29.162Z,89.69
2022-09-13T21:11:57.550Z,89.79
2022-09-13T21:14:27.301Z,89.89
2022-09-13T21:16:56.746Z,89.96
2022-09-13T21:19:26.529Z,90.11
2022-09-13T21:21:55.070Z,90.22
2022-09-13T21:24:23.224Z,90.15
2022-09-13T21:26:51.863Z,90.34
2022-09-13T21:29:20.059Z,90.33
2022-09-13T21:31:49.873Z,90.51
2022-09-13T21:34:19.928Z,90.46
2022-09-13T21:36:50.362Z,90.61
2022-09-13T21:39:19.399Z,90.59
2022-09-13T21:41:47.745Z,90.58
2022-09-13T21:44:16.812Z,90.59
2022-09-13T21:46:46.696Z,90.68
2022-09-13T21:49:16.776Z,90.98
2022-09-13T21:51:47.507Z,91.21
2022-09-13T21:54:18.088Z,90.91
2022-09-13T21:56:51.329Z,90.93
2022-09-13T21:59:21.529Z,91.07
2022-09-13T22:01:52.245Z,91.21
2022-09-13T22:04:27.053Z,91.09
2022-09-13T22:06:55.529Z,91.58
2022-09-13T22:09:26.855Z,91.67
2022-09-13T22:11:57.299Z,91.67
2022-09-13T22:14:26.548Z,91.71
2022-09-13T22:16:55.002Z,91.43
2022-09-13T22:19:27.079Z,91.77
2022-09-13T22:21:59.529Z,91.85
2022-09-13T22:24:31.763Z,91.62
2022-09-13T22:27:00.321Z,91.79
2022-09-13T22:29:29.200Z,92.01
2022-09-13T22:31:57.710Z,91.89
2022-09-13T22:34:30.681Z,91.90
2022-09-13T22:37:00.060Z,91.73
2022-09-13T22:39:28.421Z,91.78
2022-09-13T22:41:56.622Z,92.00
2022-09-13T22:44:24.857Z,92.06
2022-09-13T22:46:53.228Z,92.20
2022-09-13T22:49:21.579Z,92.26
2022-09-13T22:51:51.216Z,92.22
2022-09-13T22:54:20.529Z,92.29
2022-09-13T22:56:49.072Z,92.37
2022-09-13T22:59:20.148Z,92.23
2022-09-13T23:01:49.022Z,92.65
2022-09-13T23:04:17.600Z,92.49
2022-09-13T23:06:46.591Z,92.41
2022-09-13T23:09:19.190Z,92.47
2022-09-13T23:11:47.973Z,92.46
2022-09-13T23:14:19.813Z,93.00
2022-09-13T23:16:51.149Z,93.53
2022-09-13T23:19:23.221Z,94.27
2022-09-13T23:21:54.432Z,94.96
2022-09-13T23:24:25.114Z,95.91
2022-09-13T23:26:56.828Z,96.69
2022-09-13T23:29:25.467Z,97.05
2022-09-13T23:31:53.744Z,97.87
2022-09-13T23:34:23.120Z,98.11
2022-09-13T23:36:52.219Z,98.78
2022-09-13T23:39:21.243Z,99.04
2022-09-13T23:41:52.004Z,99.48
2022-09-13T23:44:20.485Z,100.00
2022-09-13T23:46:48.717Z,100.00
2022-09-13T23:49:17.637Z,100.00
2022-09-13T23:51:46.371Z,100.00
2022-09-13T23:54:15.139Z,100.00
2022-09-13T23:56:45.083Z,100.00
2022-09-13T23:59:14.983Z,100.00
